Time;durP1;ratioP1;P1;durP2;ratioP2;P2;SDS_P1;SDS_P2;PMS_P1;PMS_P2;Temp;Humidity;BMP_temperature;BMP_pressure;BME280_temperature;BME280_humidity;BME280_pressure;Samples;Min_cycle;Max_cycle;Signal;HPM_P1;HPM_P2
2022/09/04 00:02:17;;;;;;;0.47;0.25;;;;;;;14.84;100.00;101472.88;10384661;28;20026;-78
2022/09/04 00:07:28;;;;;;;0.77;0.47;;;;;;;14.82;100.00;101459.03;10365375;28;20035;-76
2022/09/04 00:12:37;;;;;;;0.05;0.05;;;;;;;14.66;100.00;101474.31;10385223;28;20607;-76
2022/09/04 00:18:05;;;;;;;0.32;0.28;;;;;;;14.79;100.00;101465.00;10384297;28;20110;-77
2022/09/04 00:23:21;;;;;;;0.65;0.60;;;;;;;14.92;100.00;101466.09;10375201;28;20061;-77
2022/09/04 00:28:45;;;;;;;0.30;0.20;;;;;;;15.01;100.00;101473.16;10369682;28;20054;-78
2022/09/04 00:34:13;;;;;;;0.03;0.03;;;;;;;15.04;100.00;101481.84;10359778;28;20053;-77
2022/09/04 00:39:21;;;;;;;0.63;0.40;;;;;;;14.95;100.00;101481.72;10365801;28;20050;-78
2022/09/04 00:44:49;;;;;;;0.28;0.28;;;;;;;14.60;100.00;101495.78;10361215;28;20047;-78
2022/09/04 00:50:22;;;;;;;0.22;0.20;;;;;;;14.82;100.00;101496.19;10378474;28;20058;-76
2022/09/04 00:55:39;;;;;;;0.40;0.25;;;;;;;14.51;100.00;101493.00;10360461;28;20046;-76
2022/09/04 01:00:45;;;;;;;0.20;0.20;;;;;;;14.47;100.00;101504.19;10340985;28;20050;-77
2022/09/04 01:12:32;;;;;;;0.80;0.50;;;;;;;14.19;100.00;101513.97;10372781;28;20056;-77
2022/09/04 01:24:31;;;;;;;0.20;0.20;;;;;;;13.70;100.00;101538.81;10378062;28;20071;-77
2022/09/04 01:30:06;;;;;;;0.55;0.32;;;;;;;13.77;100.00;101545.88;10360714;28;20062;-77
2022/09/04 01:35:23;;;;;;;0.43;0.20;;;;;;;13.33;100.00;101550.00;10379325;28;20103;-77
2022/09/04 01:40:37;;;;;;;0.17;0.10;;;;;;;13.24;100.00;101549.75;10355581;28;20103;-78
2022/09/04 01:45:49;;;;;;;0.10;0.10;;;;;;;13.15;100.00;101575.38;10371314;28;20118;-77
2022/09/04 01:50:56;;;;;;;0.88;0.50;;;;;;;13.28;100.00;101566.22;10377644;28;20061;-77
2022/09/04 01:56:06;;;;;;;0.63;0.45;;;;;;;13.61;100.00;101563.63;10356148;28;20090;-77
2022/09/04 02:01:43;;;;;;;0.57;0.47;;;;;;;13.70;100.00;101575.06;10380785;28;20054;-76
2022/09/04 02:06:59;;;;;;;1.23;0.40;;;;;;;13.95;100.00;101577.38;10360454;28;20054;-77
2022/09/04 02:12:24;;;;;;;0.10;0.10;;;;;;;13.82;100.00;101570.16;10373613;28;20027;-78
2022/09/04 02:17:31;;;;;;;0.77;0.40;;;;;;;13.86;100.00;101578.88;10378269;28;20050;-77
2022/09/04 02:22:44;;;;;;;0.17;0.17;;;;;;;13.61;100.00;101586.94;10368850;28;20062;-78
2022/09/04 02:28:04;;;;;;;0.15;0.10;;;;;;;13.56;100.00;101592.84;10369019;28;20108;-76
2022/09/04 02:33:28;;;;;;;0.25;0.13;;;;;;;13.23;100.00;101591.13;10384368;28;20050;-76
2022/09/04 02:38:53;;;;;;;0.10;0.10;;;;;;;13.00;100.00;101610.34;10369201;28;20053;-77
2022/09/04 02:44:32;;;;;;;0.52;0.38;;;;;;;13.01;100.00;101606.09;10384250;28;20085;-77
2022/09/04 02:49:50;;;;;;;0.20;0.20;;;;;;;13.04;100.00;101607.88;10368874;28;20058;-78
2022/09/04 02:55:17;;;;;;;0.40;0.40;;;;;;;12.94;100.00;101606.75;10353857;28;20559;-77
2022/09/04 03:00:20;;;;;;;0.30;0.25;;;;;;;13.08;100.00;101614.88;10358499;28;20076;-77
2022/09/04 03:05:29;;;;;;;0.05;0.05;;;;;;;13.31;100.00;101620.66;10366817;28;20042;-76
2022/09/04 03:10:42;;;;;;;0.35;0.22;;;;;;;13.36;100.00;101625.97;10377017;28;20125;-76
2022/09/04 03:15:53;;;;;;;0.25;0.17;;;;;;;13.44;100.00;101621.91;10343345;28;20062;-76
2022/09/04 03:21:07;;;;;;;0.40;0.40;;;;;;;13.39;100.00;101626.06;10371024;28;20430;-76
2022/09/04 03:26:15;;;;;;;0.32;0.20;;;;;;;13.55;100.00;101617.84;10362644;28;20081;-77
2022/09/04 03:31:22;;;;;;;0.20;0.20;;;;;;;13.88;100.00;101606.59;10357561;28;20050;-76
2022/09/04 03:36:39;;;;;;;0.98;0.82;;;;;;;13.95;100.00;101603.28;10358088;28;20095;-75
2022/09/04 03:42:06;;;;;;;4.03;1.10;;;;;;;13.93;100.00;101594.59;10352981;28;20073;-75
2022/09/04 03:47:47;;;;;;;2.33;0.35;;;;;;;14.03;100.00;101592.22;10364362;28;20046;-76
2022/09/04 03:53:02;;;;;;;0.43;0.30;;;;;;;13.98;100.00;101586.94;10326035;28;20054;-76
2022/09/04 03:58:16;;;;;;;0.20;0.20;;;;;;;14.03;100.00;101584.47;10351484;28;20394;-75
2022/09/04 04:03:45;;;;;;;0.52;0.40;;;;;;;14.05;100.00;101591.41;10367383;28;20058;-76
2022/09/04 04:22:53;;;;;;;1.20;0.57;;;;;;;13.70;100.00;101606.13;10367858;28;20051;-76
2022/09/04 04:28:23;;;;;;;1.00;0.65;;;;;;;13.53;100.00;101624.69;10351530;28;20058;-76
2022/09/04 04:39:56;;;;;;;0.13;0.13;;;;;;;13.16;100.00;101647.00;10366723;28;20072;-77
2022/09/04 04:45:51;;;;;;;0.30;0.30;;;;;;;12.81;100.00;101647.75;10361559;28;20093;-77
2022/09/04 04:51:30;;;;;;;0.13;0.10;;;;;;;12.61;100.00;101670.47;10342896;28;20061;-76
2022/09/04 04:57:04;;;;;;;0.20;0.20;;;;;;;12.87;100.00;101662.59;10359903;28;20034;-78
2022/09/04 05:02:17;;;;;;;0.28;0.10;;;;;;;12.82;100.00;101677.09;10365815;28;20066;-77
2022/09/04 05:07:36;;;;;;;0.00;0.00;;;;;;;12.77;100.00;101691.63;10331419;28;20061;-77
2022/09/04 05:13:12;;;;;;;4.30;0.30;;;;;;;13.09;100.00;101699.41;10346788;28;20552;-77
2022/09/04 05:18:24;;;;;;;0.63;0.55;;;;;;;12.66;100.00;101692.16;10350523;28;20057;-77
2022/09/04 05:23:35;;;;;;;0.57;0.57;;;;;;;12.89;100.00;101702.31;10353665;28;20069;-76
2022/09/04 05:29:03;;;;;;;0.50;0.30;;;;;;;13.10;100.00;101699.47;10390926;28;20046;-78
2022/09/04 05:34:47;;;;;;;0.20;0.20;;;;;;;13.27;100.00;101715.47;10348235;28;20050;-77
2022/09/04 05:40:05;;;;;;;0.60;0.60;;;;;;;13.60;100.00;101704.28;10335850;28;20073;-76
2022/09/04 05:45:48;;;;;;;0.60;0.43;;;;;;;13.91;100.00;101710.25;10373157;28;20041;-77
2022/09/04 05:58:00;;;;;;;8.00;0.73;;;;;;;14.63;100.00;101714.53;10362663;28;20030;-77
2022/09/04 06:03:33;;;;;;;1.10;0.50;;;;;;;14.82;100.00;101721.88;10379825;28;20055;-77
2022/09/04 06:08:45;;;;;;;0.20;0.20;;;;;;;15.21;100.00;101723.56;10354829;28;20066;-77
2022/09/04 06:14:04;;;;;;;0.68;0.65;;;;;;;15.46;100.00;101718.81;10364405;28;20051;-76
2022/09/04 06:19:36;;;;;;;1.00;0.65;;;;;;;15.65;100.00;101716.56;10362123;28;20058;-75
2022/09/04 06:24:41;;;;;;;1.15;0.82;;;;;;;15.86;100.00;101718.72;10357419;28;20102;-77
2022/09/04 06:30:00;;;;;;;0.43;0.28;;;;;;;16.06;100.00;101726.81;10357807;28;20061;-77
2022/09/04 06:35:15;;;;;;;1.00;0.43;;;;;;;16.36;100.00;101737.69;10344451;28;20074;-77
2022/09/04 06:40:32;;;;;;;1.48;0.77;;;;;;;16.50;100.00;101738.78;10361588;28;20082;-77
2022/09/04 06:45:47;;;;;;;0.95;0.80;;;;;;;16.77;100.00;101735.69;10354651;28;20031;-76
2022/09/04 06:51:00;;;;;;;0.93;0.88;;;;;;;17.52;100.00;101723.56;10371027;28;20035;-77
2022/09/04 06:56:08;;;;;;;1.75;0.95;;;;;;;17.92;100.00;101713.50;10330181;28;20414;-76
2022/09/04 07:01:22;;;;;;;0.90;0.57;;;;;;;18.64;100.00;101721.00;10361694;28;20050;-77
2022/09/04 07:06:50;;;;;;;1.63;1.20;;;;;;;18.63;100.00;101719.25;10360958;28;20286;-75
2022/09/04 07:12:17;;;;;;;1.90;0.80;;;;;;;19.15;100.00;101723.00;10357247;28;20593;-76
2022/09/04 07:18:06;;;;;;;1.05;0.90;;;;;;;19.39;100.00;101718.72;10329025;28;20054;-77
2022/09/04 07:23:39;;;;;;;1.08;0.90;;;;;;;20.36;100.00;101704.81;10323098;28;20062;-77
2022/09/04 07:28:54;;;;;;;1.13;0.60;;;;;;;20.77;100.00;101698.59;10346158;28;20069;-78
2022/09/04 07:34:09;;;;;;;1.60;0.98;;;;;;;20.20;100.00;101712.69;10374229;28;20114;-76
2022/09/04 07:39:36;;;;;;;0.57;0.50;;;;;;;21.16;100.00;101712.38;10336537;28;20085;-77
2022/09/04 07:44:59;;;;;;;1.23;0.65;;;;;;;21.26;100.00;101702.72;10339743;28;20085;-78
2022/09/04 07:50:16;;;;;;;0.45;0.32;;;;;;;21.67;100.00;101698.09;10346784;28;20054;-77
2022/09/04 07:55:40;;;;;;;0.22;0.22;;;;;;;22.41;100.00;101696.59;10365691;28;20105;-79
2022/09/04 08:01:22;;;;;;;1.35;0.88;;;;;;;22.63;100.00;101698.09;10333664;28;20050;-76
2022/09/04 08:06:32;;;;;;;0.75;0.73;;;;;;;22.33;100.00;101705.38;10341331;28;20066;-77
2022/09/04 08:11:48;;;;;;;0.98;0.75;;;;;;;22.91;100.00;101697.72;10346680;28;20085;-77
2022/09/04 08:17:05;;;;;;;1.42;0.80;;;;;;;23.29;100.00;101703.38;10336949;28;20058;-77
2022/09/04 08:22:16;;;;;;;1.73;0.82;;;;;;;22.95;100.00;101712.56;10325639;28;20114;-77
2022/09/04 08:27:54;;;;;;;1.13;0.70;;;;;;;23.67;100.00;101704.53;10364401;28;20046;-75
2022/09/04 08:33:22;;;;;;;0.70;0.52;;;;;;;24.02;100.00;101712.78;10357103;28;20054;-75
2022/09/04 08:38:41;;;;;;;4.60;0.82;;;;;;;24.30;100.00;101710.53;10374048;28;20046;-77
2022/09/04 08:50:24;;;;;;;1.88;0.47;;;;;;;24.99;100.00;101712.69;10346176;28;20061;-78
2022/09/04 08:55:29;;;;;;;0.75;0.52;;;;;;;25.05;100.00;101709.03;10317217;28;20061;-77
2022/09/04 09:07:44;;;;;;;0.25;0.20;;;;;;;25.29;100.00;101705.84;10337013;28;20038;-77
2022/09/04 09:13:11;;;;;;;1.15;0.40;;;;;;;25.61;100.00;101703.38;10338399;28;20076;-76
2022/09/04 09:18:40;;;;;;;1.00;0.52;;;;;;;25.87;100.00;101710.66;10349484;28;20039;-77
2022/09/04 09:24:26;;;;;;;0.10;0.10;;;;;;;26.30;100.00;101716.59;10351521;28;20054;-77
2022/09/04 09:29:42;;;;;;;0.47;0.40;;;;;;;25.81;100.00;101701.09;10360394;28;20065;-77
2022/09/04 09:34:56;;;;;;;0.40;0.35;;;;;;;26.51;100.00;101699.28;10362707;28;20051;-77
2022/09/04 09:40:30;;;;;;;0.90;0.60;;;;;;;26.47;100.00;101695.00;10319222;28;20058;-77
2022/09/04 09:46:37;;;;;;;0.10;0.10;;;;;;;27.22;100.00;101689.25;10355709;28;20105;-76
2022/09/04 09:51:59;;;;;;;0.75;0.50;;;;;;;26.01;98.97;101691.78;10168867;29;20055;-75
2022/09/04 09:57:45;;;;;;;1.17;0.35;;;;;;;26.61;97.95;101691.94;10319791;28;20054;-77
2022/09/04 10:03:23;;;;;;;1.40;0.73;;;;;;;27.23;94.00;101685.69;10345476;28;20051;-76
2022/09/04 10:08:49;;;;;;;0.98;0.93;;;;;;;26.81;91.60;101694.03;10374666;28;20106;-76
2022/09/04 10:14:03;;;;;;;3.38;0.73;;;;;;;26.89;93.46;101688.50;10354804;28;20066;-75
2022/09/04 10:19:29;;;;;;;0.75;0.40;;;;;;;27.19;89.96;101686.72;10361910;28;20463;-76
2022/09/04 10:31:59;;;;;;;0.10;0.10;;;;;;;27.75;83.28;101692.84;10358311;28;20464;-75
2022/09/04 10:37:31;;;;;;;0.15;0.10;;;;;;;28.07;90.24;101688.25;10347755;28;20094;-75
2022/09/04 10:42:55;;;;;;;0.32;0.32;;;;;;;28.62;85.87;101685.38;10355470;28;20054;-75
2022/09/04 10:48:09;;;;;;;24.75;0.47;;;;;;;27.66;79.53;101696.69;10356172;28;20050;-74
2022/09/04 10:53:29;;;;;;;0.10;0.10;;;;;;;28.02;79.30;101696.34;10368496;28;20061;-75
2022/09/04 10:59:03;;;;;;;0.00;0.00;;;;;;;26.90;89.28;101693.78;10364719;28;20050;-76
2022/09/04 11:04:21;;;;;;;0.52;0.40;;;;;;;28.35;80.19;101687.25;10343386;28;20150;-75
2022/09/04 11:09:32;;;;;;;0.30;0.30;;;;;;;29.12;78.57;101687.00;10348199;28;20502;-75
2022/09/04 11:15:12;;;;;;;0.10;0.10;;;;;;;28.45;76.34;101693.97;10325524;28;20050;-76
2022/09/04 11:20:52;;;;;;;0.05;0.05;;;;;;;27.21;80.44;101690.19;10335118;28;20490;-74
2022/09/04 11:26:25;;;;;;;0.00;0.00;;;;;;;27.69;75.83;101698.34;10331720;28;20046;-76
2022/09/04 11:31:57;;;;;;;0.47;0.47;;;;;;;29.13;74.18;101686.09;10327440;28;20117;-76
2022/09/04 11:37:14;;;;;;;0.35;0.30;;;;;;;28.46;84.43;101690.41;10303592;28;20081;-75
2022/09/04 11:42:39;;;;;;;0.50;0.22;;;;;;;28.36;74.45;101691.66;10345344;28;20063;-75
2022/09/04 11:48:06;;;;;;;0.10;0.10;;;;;;;26.83;82.19;101693.97;10333825;28;20053;-74
2022/09/04 11:53:33;;;;;;;0.55;0.30;;;;;;;26.65;88.24;101693.59;10335052;28;20051;-77
2022/09/04 11:59:03;;;;;;;0.10;0.10;;;;;;;26.46;89.95;101693.25;10326609;28;20050;-75
2022/09/04 12:04:11;;;;;;;0.17;0.17;;;;;;;25.86;94.08;101693.06;10342966;28;20054;-76
2022/09/04 12:09:38;;;;;;;0.10;0.10;;;;;;;25.81;90.33;101692.31;10360723;28;20053;-76
2022/09/04 12:14:54;;;;;;;0.00;0.00;;;;;;;26.32;87.62;101695.44;10361803;28;20065;-75
2022/09/04 12:20:22;;;;;;;0.82;0.15;;;;;;;26.60;82.34;101685.81;10353837;28;20046;-75
2022/09/04 12:25:53;;;;;;;0.82;0.35;;;;;;;27.45;79.16;101692.09;10337253;28;20062;-75
2022/09/04 12:31:11;;;;;;;0.38;0.38;;;;;;;27.73;79.36;101686.75;10361974;28;20050;-75
2022/09/04 12:36:36;;;;;;;0.90;0.60;;;;;;;28.11;63.74;101695.16;10349946;28;20074;-76
2022/09/04 12:42:18;;;;;;;0.00;0.00;;;;;;;27.23;72.47;101696.25;10336750;28;20056;-75
2022/09/04 12:47:41;;;;;;;0.20;0.10;;;;;;;27.81;75.29;101703.22;10323014;28;20054;-76
2022/09/04 12:53:12;;;;;;;0.28;0.22;;;;;;;26.71;84.35;101697.81;10337083;28;20058;-77
2022/09/04 12:58:58;;;;;;;0.65;0.30;;;;;;;28.75;72.82;101693.75;10354131;28;20100;-76
2022/09/04 13:04:19;;;;;;;0.47;0.20;;;;;;;26.75;81.43;101694.19;10361629;28;20094;-74
2022/09/04 13:09:54;;;;;;;0.20;0.20;;;;;;;26.75;82.73;101704.75;10339557;28;20109;-76
2022/09/04 13:15:18;;;;;;;0.40;0.13;;;;;;;26.41;79.82;101708.34;10295845;28;20034;-75
2022/09/04 13:20:45;;;;;;;0.38;0.20;;;;;;;26.16;76.99;101714.34;10364831;28;20046;-75
2022/09/04 13:26:06;;;;;;;0.00;0.00;;;;;;;26.47;79.21;101705.56;10318978;28;20050;-75
2022/09/04 13:31:34;;;;;;;0.22;0.20;;;;;;;26.67;76.74;101712.06;10340739;28;20026;-75
2022/09/04 13:37:19;;;;;;;0.10;0.10;;;;;;;26.40;81.29;101706.63;10313725;28;20050;-75
2022/09/04 13:42:32;;;;;;;0.00;0.00;;;;;;;27.12;74.12;101697.50;10350035;28;20569;-76
2022/09/04 13:48:15;;;;;;;0.25;0.25;;;;;;;27.38;75.88;101701.97;10359156;28;20050;-75
2022/09/04 13:53:51;;;;;;;0.17;0.17;;;;;;;27.48;72.65;101700.81;10332409;28;20100;-76
2022/09/04 13:59:08;;;;;;;0.13;0.10;;;;;;;27.58;72.99;101701.38;10343442;28;20063;-75
2022/09/04 14:04:44;;;;;;;0.28;0.10;;;;;;;27.34;70.48;101710.94;10320142;28;20054;-75
2022/09/04 14:09:53;;;;;;;0.70;0.38;;;;;;;27.08;74.63;101707.31;10324059;28;20494;-75
2022/09/04 14:15:18;;;;;;;0.32;0.28;;;;;;;27.19;74.18;101710.50;10362012;28;20067;-76
2022/09/04 14:20:26;;;;;;;0.00;0.00;;;;;;;26.79;68.59;101716.16;10324438;28;20112;-74
2022/09/04 14:25:37;;;;;;;0.13;0.13;;;;;;;27.24;68.87;101713.88;10340015;28;20054;-75
2022/09/04 14:30:58;;;;;;;1.10;0.40;;;;;;;27.29;68.86;101718.16;10365816;28;20074;-75
2022/09/04 14:36:34;;;;;;;0.52;0.32;;;;;;;26.97;68.94;101717.38;10343221;28;20119;-76
2022/09/04 14:41:54;;;;;;;0.60;0.25;;;;;;;27.00;67.32;101717.25;10368457;28;20054;-75
2022/09/04 14:47:08;;;;;;;0.65;0.52;;;;;;;26.87;69.78;101715.00;10344424;28;20105;-75
2022/09/04 14:52:18;;;;;;;3.83;0.20;;;;;;;27.10;72.64;101715.22;10355582;28;20133;-75
2022/09/04 14:57:31;;;;;;;0.00;0.00;;;;;;;26.99;75.29;101708.47;10358232;28;20061;-75
2022/09/04 15:03:14;;;;;;;0.10;0.10;;;;;;;27.77;73.56;101706.06;10344542;28;20192;-74
2022/09/04 15:08:33;;;;;;;0.20;0.20;;;;;;;27.23;72.12;101706.84;10351251;28;20066;-74
2022/09/04 15:14:03;;;;;;;0.30;0.13;;;;;;;27.45;70.04;101710.63;10342468;28;20132;-80
2022/09/04 15:19:38;;;;;;;0.30;0.25;;;;;;;27.45;62.65;101711.47;10317898;28;20050;-80
2022/09/04 15:24:59;;;;;;;0.00;0.00;;;;;;;27.41;65.57;101707.19;10371052;28;20066;-78
2022/09/04 15:30:26;;;;;;;0.00;0.00;;;;;;;26.87;68.67;101703.56;10338184;28;20102;-79
2022/09/04 15:35:34;;;;;;;0.20;0.20;;;;;;;26.92;70.56;101699.84;10365369;28;20033;-79
2022/09/04 15:40:50;;;;;;;0.10;0.10;;;;;;;26.95;72.31;101701.56;10361406;28;20129;-80
2022/09/04 15:46:21;;;;;;;0.22;0.13;;;;;;;26.91;70.70;101706.09;10361816;28;20396;-79
2022/09/04 15:51:38;;;;;;;0.35;0.20;;;;;;;27.19;69.23;101702.56;10352979;28;20058;-79
2022/09/04 15:56:45;;;;;;;0.03;0.00;;;;;;;27.21;67.57;101705.16;10376674;28;20093;-80
2022/09/04 16:02:04;;;;;;;0.00;0.00;;;;;;;26.90;69.66;101704.34;10348657;28;20066;-79
2022/09/04 16:07:18;;;;;;;0.10;0.10;;;;;;;27.32;69.04;101694.25;10365708;28;20058;-80
2022/09/04 16:12:26;;;;;;;0.00;0.00;;;;;;;27.07;67.34;101695.00;10347491;28;20145;-80
2022/09/04 16:17:32;;;;;;;0.10;0.10;;;;;;;27.05;67.60;101699.50;10351446;28;20390;-80
2022/09/04 16:22:46;;;;;;;5.10;0.15;;;;;;;26.67;66.94;101702.34;10338548;28;20169;-79
2022/09/04 16:27:52;;;;;;;0.28;0.10;;;;;;;26.87;71.11;101704.41;10338594;28;20058;-79
2022/09/04 16:32:55;;;;;;;0.00;0.00;;;;;;;26.75;69.99;101704.75;10337719;28;20442;-80
2022/09/04 16:38:14;;;;;;;0.10;0.00;;;;;;;26.92;71.33;101697.22;10343038;28;20082;-80
2022/09/04 16:43:24;;;;;;;0.10;0.10;;;;;;;26.95;68.59;101708.63;10333566;28;20054;-80
2022/09/04 16:48:33;;;;;;;0.00;0.00;;;;;;;26.94;69.97;101704.22;10340391;28;20050;-79
2022/09/04 16:53:57;;;;;;;0.00;0.00;;;;;;;27.02;71.01;101708.41;10353264;28;20058;-79
2022/09/04 16:59:17;;;;;;;0.00;0.00;;;;;;;26.78;68.74;101704.69;10339327;28;20495;-79
2022/09/04 17:04:37;;;;;;;0.25;0.10;;;;;;;26.59;73.78;101699.94;10328568;28;20101;-79
2022/09/04 17:09:58;;;;;;;0.20;0.20;;;;;;;26.40;71.42;101712.78;10329220;28;20490;-79
2022/09/04 17:15:38;;;;;;;0.08;0.08;;;;;;;26.38;74.49;101708.47;10329698;28;20099;-79
2022/09/04 17:22:30;;;;;;;0.00;0.00;;;;;;;26.20;76.76;101710.69;10326498;28;20415;-79
2022/09/04 17:27:10;;;;;;;0.00;0.00;;;;;;;25.84;82.15;101704.59;10328626;28;20066;-79
2022/09/04 17:32:45;;;;;;;0.08;0.08;;;;;;;25.71;78.79;101710.16;10325834;28;20486;-80
2022/09/04 17:38:21;;;;;;;0.10;0.10;;;;;;;25.50;85.17;101703.66;10323363;28;20137;-80
2022/09/04 17:44:05;;;;;;;0.10;0.10;;;;;;;25.29;87.34;101703.19;10321448;28;20050;-80
2022/09/04 17:49:18;;;;;;;0.00;0.00;;;;;;;25.02;90.41;101713.47;10336450;28;20490;-80
2022/09/04 17:54:23;;;;;;;0.00;0.00;;;;;;;24.44;100.00;101712.00;10333691;28;20441;-80
2022/09/04 17:59:43;;;;;;;0.10;0.00;;;;;;;24.03;100.00;101715.38;10332916;28;20073;-80
2022/09/04 18:05:07;;;;;;;0.20;0.03;;;;;;;23.50;100.00;101727.59;10332778;28;20506;-80
2022/09/04 18:10:36;;;;;;;0.00;0.00;;;;;;;23.29;100.00;101734.91;10332736;28;20043;-80
2022/09/04 18:15:42;;;;;;;0.25;0.15;;;;;;;23.07;100.00;101735.19;10320914;28;20049;-80
2022/09/04 18:20:56;;;;;;;0.00;0.00;;;;;;;22.75;100.00;101762.72;10347493;28;20054;-80
2022/09/04 18:26:20;;;;;;;0.25;0.25;;;;;;;22.08;100.00;101759.84;10355141;28;20054;-79
2022/09/04 18:32:05;;;;;;;95.45;26.90;;;;;;;22.17;100.00;101780.75;10338126;28;20054;-80
2022/09/04 18:37:45;;;;;;;27.50;9.43;;;;;;;21.70;100.00;101782.00;10279056;28;20109;-81
2022/09/04 18:43:04;;;;;;;0.10;0.10;;;;;;;20.94;100.00;101798.03;10328270;28;20046;-80
2022/09/04 18:48:26;;;;;;;10.45;3.22;;;;;;;20.95;100.00;101809.41;10331232;28;20141;-81
2022/09/04 18:54:07;;;;;;;0.82;0.82;;;;;;;20.55;100.00;101819.06;10345735;28;20105;-80
2022/09/04 18:59:23;;;;;;;1.13;1.10;;;;;;;20.47;100.00;101823.41;10313119;28;20086;-80
2022/09/04 19:04:45;;;;;;;6.57;6.18;;;;;;;20.36;100.00;101822.56;10327148;28;20054;-80
2022/09/04 19:09:57;;;;;;;23.38;12.60;;;;;;;20.16;100.00;101846.97;10309054;28;20481;-81
2022/09/04 19:15:01;;;;;;;0.00;0.00;;;;;;;19.77;100.00;101859.09;10317233;28;20054;-81
2022/09/04 19:20:10;;;;;;;0.52;0.52;;;;;;;19.75;100.00;101850.34;10314914;28;20058;-82
2022/09/04 19:25:33;;;;;;;0.20;0.20;;;;;;;19.65;100.00;101857.28;10297586;28;20057;-82
2022/09/04 19:30:51;;;;;;;0.10;0.10;;;;;;;19.10;100.00;101868.38;10350239;28;20054;-81
2022/09/04 19:36:02;;;;;;;0.68;0.50;;;;;;;18.93;100.00;101874.34;10324497;28;20053;-81
2022/09/04 19:41:15;;;;;;;0.22;0.22;;;;;;;18.71;100.00;101879.41;10315265;28;20047;-80
2022/09/04 19:47:08;;;;;;;0.40;0.40;;;;;;;18.54;100.00;101894.03;10352893;28;20129;-80
2022/09/04 19:52:34;;;;;;;0.30;0.30;;;;;;;18.36;100.00;101894.75;10319089;28;20512;-82
2022/09/04 19:58:13;;;;;;;180.60;5.22;;;;;;;18.04;100.00;101895.28;10309393;28;20086;-81
2022/09/04 20:03:23;;;;;;;0.22;0.10;;;;;;;18.08;100.00;101908.38;10340507;28;20050;-81
2022/09/04 20:08:38;;;;;;;0.28;0.10;;;;;;;18.06;100.00;101915.31;10323381;28;20065;-82
2022/09/04 20:13:56;;;;;;;0.00;0.00;;;;;;;17.98;100.00;101916.97;10351731;28;20086;-81
2022/09/04 20:19:21;;;;;;;0.10;0.10;;;;;;;18.03;100.00;101907.47;10344699;28;20417;-82
2022/09/04 20:25:07;;;;;;;0.17;0.17;;;;;;;17.96;100.00;101913.47;10339898;28;20112;-81
2022/09/04 20:30:18;;;;;;;0.77;0.30;;;;;;;17.87;100.00;101922.00;10344582;28;20053;-82
2022/09/04 20:35:31;;;;;;;0.75;0.45;;;;;;;17.67;100.00;101929.59;10346590;28;20050;-82
2022/09/04 20:40:39;;;;;;;0.38;0.35;;;;;;;17.49;100.00;101937.16;10347825;28;20054;-82
2022/09/04 20:46:40;;;;;;;0.20;0.20;;;;;;;17.27;100.00;101942.97;10312411;28;20059;-81
2022/09/04 20:52:05;;;;;;;0.10;0.10;;;;;;;17.19;100.00;101947.16;10168102;29;20464;-82
2022/09/04 20:58:01;;;;;;;0.10;0.10;;;;;;;17.04;100.00;101939.13;10284766;28;20117;-81
2022/09/04 21:03:47;;;;;;;0.00;0.00;;;;;;;16.74;100.00;101956.81;10293375;28;20498;-80
2022/09/04 21:09:05;;;;;;;0.40;0.30;;;;;;;16.74;100.00;101956.81;10321085;28;20073;-81
2022/09/04 21:14:30;;;;;;;0.28;0.28;;;;;;;16.80;100.00;101956.91;10305230;28;20047;-81
2022/09/04 21:20:09;;;;;;;0.67;0.40;;;;;;;16.65;100.00;101961.84;10293882;28;20454;-81
2022/09/04 21:25:49;;;;;;;0.50;0.50;;;;;;;16.51;100.00;101974.63;10320235;28;20065;-80
2022/09/04 21:31:32;;;;;;;0.40;0.22;;;;;;;16.49;100.00;101986.72;10342987;28;20456;-81
2022/09/04 21:36:51;;;;;;;0.65;0.32;;;;;;;16.48;100.00;101987.56;10340920;28;20588;-81
2022/09/04 21:42:14;;;;;;;0.20;0.20;;;;;;;16.29;100.00;102004.53;10348169;28;20050;-81
2022/09/04 21:47:39;;;;;;;1.10;0.73;;;;;;;16.28;100.00;101992.38;10356999;28;20046;-81
2022/09/04 21:53:22;;;;;;;0.50;0.47;;;;;;;16.28;100.00;102010.59;10334027;28;20569;-81
2022/09/04 21:58:51;;;;;;;0.43;0.35;;;;;;;16.18;100.00;102000.03;10361313;28;20186;-81
2022/09/04 22:04:20;;;;;;;0.70;0.30;;;;;;;15.84;100.00;102009.69;10322233;28;20521;-80
2022/09/04 22:09:28;;;;;;;0.70;0.50;;;;;;;15.99;100.00;102021.25;10299934;28;20051;-80
2022/09/04 22:14:55;;;;;;;0.30;0.20;;;;;;;15.93;100.00;102041.94;10308904;28;20493;-81
2022/09/04 22:20:24;;;;;;;0.75;0.60;;;;;;;15.88;100.00;102020.16;10326518;28;20109;-81
2022/09/04 22:25:36;;;;;;;0.05;0.05;;;;;;;15.83;100.00;102010.53;10317877;28;20050;-80
2022/09/04 22:30:37;;;;;;;0.20;0.20;;;;;;;15.71;100.00;102016.28;10319018;28;20082;-80
2022/09/04 22:36:25;;;;;;;145.13;28.42;;;;;;;15.77;100.00;102015.56;10311517;28;20065;-81
2022/09/04 22:41:53;;;;;;;10.07;5.50;;;;;;;15.82;100.00;102007.88;10288502;28;20182;-81
2022/09/04 22:47:32;;;;;;;8.18;5.32;;;;;;;15.77;100.00;102010.38;10323620;28;20054;-81
2022/09/04 22:52:46;;;;;;;3.30;3.10;;;;;;;15.61;100.00;102018.66;10355224;28;20552;-81
2022/09/04 22:58:20;;;;;;;1.50;1.50;;;;;;;15.64;100.00;102014.41;10326789;28;20503;-81
2022/09/04 23:03:39;;;;;;;1.50;1.50;;;;;;;15.61;100.00;102005.66;10280410;28;20062;-81
2022/09/04 23:09:07;;;;;;;4.27;3.90;;;;;;;15.59;100.00;102012.56;10316079;28;20478;-81
2022/09/04 23:14:29;;;;;;;2.25;2.15;;;;;;;15.48;100.00;102012.31;10325655;28;20081;-81
2022/09/04 23:19:52;;;;;;;4.75;4.50;;;;;;;15.21;100.00;102040.25;10294830;28;20054;-81
2022/09/04 23:25:24;;;;;;;3.13;2.95;;;;;;;15.05;100.00;102124.63;10326312;28;20074;-80
2022/09/04 23:31:24;;;;;;;2.35;2.25;;;;;;;15.10;100.00;102109.16;10317764;28;20055;-80
2022/09/04 23:37:06;;;;;;;1.70;1.60;;;;;;;15.11;100.00;102116.13;10309218;28;20461;-80
2022/09/04 23:42:31;;;;;;;43.50;35.05;;;;;;;15.02;100.00;102110.69;10337649;28;20126;-81
2022/09/04 23:47:57;;;;;;;1999.90;999.90;;;;;;;14.98;100.00;102101.94;10296949;28;20117;-80
2022/09/04 23:53:18;;;;;;;1999.90;999.90;;;;;;;15.02;100.00;102102.88;10331281;28;20051;-80
